createdAt,value
2019-01-21T00:00:32.051Z,-6.36
2019-01-21T00:01:31.916Z,-6.27
2019-01-21T00:02:31.772Z,-6.26
2019-01-21T00:03:31.635Z,-6.34
2019-01-21T00:04:31.497Z,-6.24
2019-01-21T00:05:31.357Z,-6.31
2019-01-21T00:06:31.222Z,-6.36
2019-01-21T00:07:31.080Z,-6.40
2019-01-21T00:08:30.940Z,-6.40
2019-01-21T00:09:30.802Z,-6.44
2019-01-21T00:10:30.662Z,-6.45
2019-01-21T00:11:30.527Z,-6.40
2019-01-21T00:12:30.384Z,-6.42
2019-01-21T00:13:30.246Z,-6.48
2019-01-21T00:14:30.107Z,-6.45
2019-01-21T00:15:29.971Z,-6.40
2019-01-21T00:16:29.830Z,-6.37
2019-01-21T00:17:29.692Z,-6.45
2019-01-21T00:18:29.550Z,-6.45
2019-01-21T00:19:29.413Z,-6.47
2019-01-21T00:20:29.272Z,-6.40
2019-01-21T00:21:29.134Z,-6.40
2019-01-21T00:22:28.995Z,-6.48
2019-01-21T00:23:28.856Z,-6.45
2019-01-21T00:24:28.717Z,-6.48
2019-01-21T00:25:28.579Z,-6.50
2019-01-21T00:26:28.440Z,-6.44
2019-01-21T00:27:28.302Z,-6.39
2019-01-21T00:28:28.162Z,-6.40
2019-01-21T00:29:28.027Z,-6.45
2019-01-21T00:30:27.882Z,-6.40
2019-01-21T00:31:27.744Z,-6.48
2019-01-21T00:32:27.609Z,-6.37
2019-01-21T00:33:27.469Z,-6.50
2019-01-21T00:34:27.329Z,-6.50
2019-01-21T00:35:27.188Z,-6.58
2019-01-21T00:36:27.050Z,-6.52
2019-01-21T00:37:26.912Z,-6.51
2019-01-21T00:38:26.773Z,-6.58
2019-01-21T00:39:26.635Z,-6.54
2019-01-21T00:40:26.497Z,-6.55
2019-01-21T00:41:26.357Z,-6.50
2019-01-21T00:42:26.217Z,-6.51
2019-01-21T00:43:26.079Z,-6.52
2019-01-21T00:44:25.940Z,-6.50
2019-01-21T00:45:25.801Z,-6.61
2019-01-21T00:46:25.663Z,-6.74
2019-01-21T00:47:29.711Z,-6.70
2019-01-21T00:48:25.385Z,-6.52
2019-01-21T00:49:25.248Z,-6.55
2019-01-21T00:50:25.106Z,-6.48
2019-01-21T00:51:24.969Z,-6.33
2019-01-21T00:52:24.828Z,-6.33
2019-01-21T00:53:24.689Z,-6.13
2019-01-21T00:54:24.549Z,-6.26
2019-01-21T00:55:24.411Z,-6.42
2019-01-21T00:56:24.273Z,-6.45
2019-01-21T00:57:24.130Z,-6.23
2019-01-21T00:58:24.001Z,-6.29
2019-01-21T00:59:23.852Z,-6.37
2019-01-21T01:00:23.711Z,-6.45
2019-01-21T01:01:23.574Z,-6.50
2019-01-21T01:02:23.434Z,-6.55
2019-01-21T01:03:23.293Z,-6.55
2019-01-21T01:04:23.154Z,-6.69
2019-01-21T01:05:23.015Z,-6.69
2019-01-21T01:06:22.873Z,-6.71
2019-01-21T01:07:22.734Z,-6.69
2019-01-21T01:08:22.599Z,-6.77
2019-01-21T01:09:22.457Z,-6.76
2019-01-21T01:10:22.315Z,-6.77
2019-01-21T01:11:22.177Z,-6.76
2019-01-21T01:12:22.042Z,-6.73
2019-01-21T01:13:21.899Z,-6.76
2019-01-21T01:14:21.759Z,-6.77
2019-01-21T01:15:21.619Z,-6.79
2019-01-21T01:16:21.479Z,-6.81
2019-01-21T01:17:21.340Z,-6.74
2019-01-21T01:18:21.200Z,-6.73
2019-01-21T01:19:21.064Z,-6.81
2019-01-21T01:20:20.924Z,-6.71
2019-01-21T01:21:20.782Z,-6.69
2019-01-21T01:22:20.643Z,-6.70
2019-01-21T01:23:20.503Z,-6.77
2019-01-21T01:24:20.365Z,-6.70
2019-01-21T01:25:20.224Z,-6.70
2019-01-21T01:26:20.087Z,-6.66
2019-01-21T01:27:19.946Z,-6.69
2019-01-21T01:28:19.808Z,-6.70
2019-01-21T01:29:19.674Z,-6.74
2019-01-21T01:30:19.535Z,-6.67
2019-01-21T01:31:19.389Z,-6.74
2019-01-21T01:32:19.251Z,-6.67
2019-01-21T01:33:19.112Z,-6.67
2019-01-21T01:34:18.972Z,-6.64
2019-01-21T01:35:18.833Z,-6.64
2019-01-21T01:36:18.699Z,-6.64
2019-01-21T01:37:18.557Z,-6.63
2019-01-21T01:38:18.420Z,-6.77
2019-01-21T01:39:18.275Z,-6.66
2019-01-21T01:40:18.138Z,-6.74
2019-01-21T01:41:17.997Z,-6.82
2019-01-21T01:42:17.865Z,-6.81
2019-01-21T01:43:17.723Z,-6.87
2019-01-21T01:44:17.579Z,-6.79
2019-01-21T01:45:17.441Z,-6.74
2019-01-21T01:46:17.302Z,-6.73
2019-01-21T01:47:17.163Z,-6.81
2019-01-21T01:48:17.025Z,-6.73
2019-01-21T01:49:16.889Z,-6.69
2019-01-21T01:50:16.744Z,-6.74
2019-01-21T01:51:16.619Z,-6.73
2019-01-21T01:52:16.468Z,-6.67
2019-01-21T01:53:16.327Z,-6.67
2019-01-21T01:54:16.186Z,-6.64
2019-01-21T01:55:16.048Z,-6.59
2019-01-21T01:56:15.909Z,-6.58
2019-01-21T01:57:15.773Z,-6.64
2019-01-21T01:58:15.630Z,-6.67
2019-01-21T01:59:15.490Z,-6.64
2019-01-21T02:00:15.354Z,-6.66
2019-01-21T02:01:15.215Z,-6.74
2019-01-21T02:02:15.075Z,-6.64
2019-01-21T02:03:14.936Z,-6.70
2019-01-21T02:04:14.797Z,-6.64
2019-01-21T02:05:14.656Z,-6.64
2019-01-21T02:06:14.518Z,-6.63
2019-01-21T02:07:14.386Z,-6.67
2019-01-21T02:08:14.242Z,-6.76
2019-01-21T02:09:14.101Z,-6.67
2019-01-21T02:10:13.960Z,-6.74
2019-01-21T02:11:13.822Z,-6.70
2019-01-21T02:12:13.682Z,-6.52
2019-01-21T02:13:13.543Z,-6.51
2019-01-21T02:14:13.402Z,-6.55
2019-01-21T02:15:13.262Z,-6.54
2019-01-21T02:16:13.126Z,-6.52
2019-01-21T02:17:12.986Z,-6.61
2019-01-21T02:18:12.846Z,-6.55
2019-01-21T02:19:12.705Z,-6.51
2019-01-21T02:20:12.567Z,-6.52
2019-01-21T02:21:12.430Z,-6.55
2019-01-21T02:22:12.287Z,-6.54
2019-01-21T02:23:12.150Z,-6.61
2019-01-21T02:24:12.012Z,-6.54
2019-01-21T02:25:11.873Z,-6.51
2019-01-21T02:26:11.737Z,-6.54
2019-01-21T02:27:11.591Z,-6.55
2019-01-21T02:28:11.451Z,-6.63
2019-01-21T02:29:11.314Z,-6.63
2019-01-21T02:30:11.176Z,-6.64
2019-01-21T02:31:11.036Z,-6.54
2019-01-21T02:32:10.897Z,-6.55
2019-01-21T02:33:10.764Z,-6.52
2019-01-21T02:34:10.629Z,-6.59
2019-01-21T02:35:10.481Z,-6.50
2019-01-21T02:36:10.340Z,-6.61
2019-01-21T02:37:10.201Z,-6.61
2019-01-21T02:38:10.060Z,-6.52
2019-01-21T02:39:09.924Z,-6.51
2019-01-21T02:40:09.801Z,-6.50
2019-01-21T02:41:09.648Z,-6.58
2019-01-21T02:42:09.505Z,-6.50
2019-01-21T02:43:09.367Z,-6.51
2019-01-21T02:44:09.229Z,-6.51
2019-01-21T02:45:09.090Z,-6.54
2019-01-21T02:46:08.951Z,-6.48
2019-01-21T02:47:08.809Z,-6.48
2019-01-21T02:48:08.674Z,-6.50
2019-01-21T02:49:08.532Z,-6.59
2019-01-21T02:50:08.393Z,-6.58
2019-01-21T02:51:08.253Z,-6.54
2019-01-21T02:52:08.115Z,-6.55
2019-01-21T02:53:07.977Z,-6.50
2019-01-21T02:54:07.835Z,-6.52
2019-01-21T02:55:07.697Z,-6.50
2019-01-21T02:56:07.562Z,-6.47
2019-01-21T02:57:07.428Z,-6.50
2019-01-21T02:58:07.279Z,-6.54
2019-01-21T02:59:07.144Z,-6.54
2019-01-21T03:00:07.007Z,-6.54
2019-01-21T03:01:06.862Z,-6.61
2019-01-21T03:02:06.734Z,-6.63
2019-01-21T03:03:06.585Z,-6.58
2019-01-21T03:04:06.446Z,-6.61
2019-01-21T03:05:06.309Z,-6.61
2019-01-21T03:06:06.169Z,-6.55
2019-01-21T03:07:06.027Z,-6.64
2019-01-21T03:08:05.889Z,-6.58
2019-01-21T03:09:05.750Z,-6.61
2019-01-21T03:10:05.611Z,-6.50
2019-01-21T03:11:05.471Z,-6.50
2019-01-21T03:12:05.332Z,-6.45
2019-01-21T03:13:05.195Z,-6.45
2019-01-21T03:14:05.054Z,-6.42
2019-01-21T03:15:04.918Z,-6.45
2019-01-21T03:16:04.781Z,-6.45
2019-01-21T03:17:04.637Z,-6.40
2019-01-21T03:18:07.997Z,-6.44
2019-01-21T03:19:04.362Z,-6.51
2019-01-21T03:20:04.222Z,-6.52
2019-01-21T03:21:04.080Z,-6.48
2019-01-21T03:22:03.944Z,-6.50
2019-01-21T03:23:03.804Z,-6.45
2019-01-21T03:24:03.675Z,-6.54
2019-01-21T03:25:03.526Z,-6.45
2019-01-21T03:26:03.388Z,-6.52
2019-01-21T03:27:03.246Z,-6.48
2019-01-21T03:28:03.109Z,-6.44
2019-01-21T03:29:02.978Z,-6.40
2019-01-21T03:30:02.833Z,-6.47
2019-01-21T03:31:02.703Z,-6.47
2019-01-21T03:32:02.553Z,-6.42
2019-01-21T03:33:02.463Z,-6.45
2019-01-21T03:34:02.277Z,-6.37
2019-01-21T03:35:02.136Z,-6.40
2019-01-21T03:36:01.999Z,-6.40
2019-01-21T03:37:01.859Z,-6.36
2019-01-21T03:38:01.724Z,-6.39
2019-01-21T03:39:01.582Z,-6.37
2019-01-21T03:40:01.440Z,-6.42
2019-01-21T03:41:01.300Z,-6.36
2019-01-21T03:42:01.168Z,-6.33
2019-01-21T03:43:01.024Z,-6.33
2019-01-21T03:44:00.886Z,-6.36
2019-01-21T03:45:00.745Z,-6.40
2019-01-21T03:46:00.605Z,-6.37
2019-01-21T03:47:00.468Z,-6.37
2019-01-21T03:48:00.333Z,-6.37
2019-01-21T03:49:00.199Z,-6.31
2019-01-21T03:50:00.055Z,-6.26
2019-01-21T03:50:59.911Z,-6.27
2019-01-21T03:51:59.776Z,-6.26
2019-01-21T03:52:59.635Z,-6.30
2019-01-21T03:53:59.493Z,-6.26
2019-01-21T03:54:59.357Z,-6.34
2019-01-21T03:55:59.219Z,-6.24
2019-01-21T03:56:59.082Z,-6.31
2019-01-21T03:57:58.941Z,-6.29
2019-01-21T03:58:58.802Z,-6.24
2019-01-21T03:59:58.663Z,-6.27
2019-01-21T04:00:58.525Z,-6.18
2019-01-21T04:01:58.388Z,-6.16
2019-01-21T04:02:58.248Z,-6.16
2019-01-21T04:03:58.107Z,-6.18
2019-01-21T04:04:57.969Z,-6.21
2019-01-21T04:05:57.828Z,-6.16
2019-01-21T04:06:57.692Z,-6.18
2019-01-21T04:07:57.551Z,-6.19
2019-01-21T04:08:57.413Z,-6.19
2019-01-21T04:09:57.272Z,-6.24
2019-01-21T04:10:57.134Z,-6.24
2019-01-21T04:11:56.996Z,-6.27
2019-01-21T04:12:56.861Z,-6.21
2019-01-21T04:13:56.716Z,-6.08
2019-01-21T04:14:56.577Z,-6.09
2019-01-21T04:15:56.441Z,-6.01
2019-01-21T04:16:56.300Z,-6.16
2019-01-21T04:17:56.163Z,-6.13
2019-01-21T04:18:56.043Z,-6.09
2019-01-21T04:19:55.885Z,-6.06
2019-01-21T04:20:55.745Z,-6.31
2019-01-21T04:21:55.605Z,-6.26
2019-01-21T04:22:55.465Z,-6.30
2019-01-21T04:23:55.379Z,-6.21
2019-01-21T04:24:55.189Z,-6.24
2019-01-21T04:25:55.051Z,-6.12
2019-01-21T04:26:54.909Z,-6.09
2019-01-21T04:27:54.779Z,-6.09
2019-01-21T04:28:54.635Z,-6.06
2019-01-21T04:29:54.492Z,-6.15
2019-01-21T04:30:54.355Z,-6.06
2019-01-21T04:31:54.215Z,-6.08
2019-01-21T04:32:54.074Z,-6.02
2019-01-21T04:33:53.934Z,-5.98
2019-01-21T04:34:53.796Z,-5.97
2019-01-21T04:35:53.657Z,-6.01
2019-01-21T04:36:53.519Z,-5.95
2019-01-21T04:37:53.380Z,-5.97
2019-01-21T04:38:53.240Z,-5.92
2019-01-21T04:39:53.102Z,-5.97
2019-01-21T04:40:52.964Z,-5.95
2019-01-21T04:41:52.824Z,-5.84
2019-01-21T04:42:52.686Z,-5.88
2019-01-21T04:43:52.543Z,-5.87
2019-01-21T04:44:52.413Z,-5.90
2019-01-21T04:45:52.268Z,-5.83
2019-01-21T04:46:52.139Z,-5.83
2019-01-21T04:47:51.991Z,-5.80
2019-01-21T04:48:51.852Z,-5.76
2019-01-21T04:49:51.714Z,-5.70
2019-01-21T04:50:51.574Z,-5.72
2019-01-21T04:51:51.436Z,-5.72
2019-01-21T04:52:51.301Z,-5.72
2019-01-21T04:53:51.157Z,-5.76
2019-01-21T04:54:51.022Z,-5.76
2019-01-21T04:55:50.880Z,-5.72
2019-01-21T04:56:50.741Z,-5.69
2019-01-21T04:57:50.613Z,-5.61
2019-01-21T04:58:50.465Z,-5.70
2019-01-21T04:59:50.327Z,-5.55
2019-01-21T05:00:50.189Z,-5.49
2019-01-21T05:01:50.049Z,-5.51
2019-01-21T05:02:49.915Z,-5.37
2019-01-21T05:03:50.004Z,-5.40
2019-01-21T05:04:49.639Z,-5.44
2019-01-21T05:05:49.496Z,-5.45
2019-01-21T05:06:49.357Z,-5.44
2019-01-21T05:07:49.219Z,-5.55
2019-01-21T05:08:49.080Z,-5.61
2019-01-21T05:09:48.944Z,-5.55
2019-01-21T05:10:48.801Z,-5.55
2019-01-21T05:11:48.669Z,-5.58
2019-01-21T05:12:48.527Z,-5.58
2019-01-21T05:13:48.386Z,-5.56
2019-01-21T05:14:48.256Z,-5.47
2019-01-21T05:15:48.113Z,-5.55
2019-01-21T05:16:47.975Z,-5.54
2019-01-21T05:17:47.834Z,-5.44
2019-01-21T05:18:47.697Z,-5.58
2019-01-21T05:19:47.558Z,-5.56
2019-01-21T05:20:47.429Z,-5.56
2019-01-21T05:21:47.289Z,-5.41
2019-01-21T05:22:47.146Z,-5.41
2019-01-21T05:23:47.011Z,-5.33
2019-01-21T05:24:46.870Z,-5.30
2019-01-21T05:25:46.731Z,-5.33
2019-01-21T05:26:46.594Z,-5.35
2019-01-21T05:27:46.454Z,-5.43
2019-01-21T05:28:46.334Z,-5.37
2019-01-21T05:29:46.180Z,-5.27
2019-01-21T05:30:46.044Z,-5.33
2019-01-21T05:31:46.013Z,-5.38
2019-01-21T05:32:45.764Z,-5.34
2019-01-21T05:33:45.628Z,-5.35
2019-01-21T05:34:45.488Z,-5.34
2019-01-21T05:35:45.352Z,-5.27
2019-01-21T05:36:45.216Z,-5.34
2019-01-21T05:37:45.073Z,-5.38
2019-01-21T05:38:44.939Z,-5.35
2019-01-21T05:39:44.800Z,-5.33
2019-01-21T05:40:44.664Z,-5.34
2019-01-21T05:41:44.522Z,-5.30
2019-01-21T05:42:44.387Z,-5.37
2019-01-21T05:43:44.251Z,-5.33
2019-01-21T05:44:44.111Z,-5.35
2019-01-21T05:45:43.972Z,-5.27
2019-01-21T05:46:43.838Z,-5.34
2019-01-21T05:47:43.697Z,-5.25
2019-01-21T05:48:48.905Z,-5.30
2019-01-21T05:49:43.467Z,-5.30
2019-01-21T05:50:43.285Z,-5.31
2019-01-21T05:51:43.147Z,-5.31
2019-01-21T05:52:43.008Z,-5.30
2019-01-21T05:53:42.879Z,-5.31
2019-01-21T05:54:42.737Z,-5.20
2019-01-21T05:55:42.596Z,-5.23
2019-01-21T05:56:42.457Z,-5.30
2019-01-21T05:57:42.325Z,-5.25
2019-01-21T05:58:42.183Z,-5.26
2019-01-21T05:59:42.047Z,-5.23
2019-01-21T06:00:41.908Z,-5.26
2019-01-21T06:01:41.767Z,-5.26
2019-01-21T06:02:41.632Z,-5.22
2019-01-21T06:03:41.494Z,-5.19
2019-01-21T06:04:41.358Z,-5.22
2019-01-21T06:05:41.216Z,-5.17
2019-01-21T06:06:41.079Z,-5.12
2019-01-21T06:07:40.946Z,-5.11
2019-01-21T06:08:40.810Z,-5.08
2019-01-21T06:09:40.668Z,-5.16
2019-01-21T06:10:40.530Z,-5.11
2019-01-21T06:11:40.390Z,-5.07
2019-01-21T06:12:40.255Z,-5.14
2019-01-21T06:13:40.125Z,-5.11
2019-01-21T06:14:39.978Z,-5.14
2019-01-21T06:15:39.840Z,-5.08
2019-01-21T06:16:39.740Z,-5.12
2019-01-21T06:17:39.564Z,-5.03
2019-01-21T06:18:39.425Z,-5.03
2019-01-21T06:19:39.289Z,-5.11
2019-01-21T06:20:39.155Z,-5.03
2019-01-21T06:21:39.017Z,-5.04
2019-01-21T06:22:38.899Z,-5.03
2019-01-21T06:23:38.740Z,-5.00
2019-01-21T06:24:38.601Z,-5.04
2019-01-21T06:25:38.467Z,-5.04
2019-01-21T06:26:38.327Z,-5.03
2019-01-21T06:27:38.191Z,-5.07
2019-01-21T06:28:38.050Z,-5.03
2019-01-21T06:29:37.912Z,-5.01
2019-01-21T06:30:37.779Z,-5.03
2019-01-21T06:31:37.667Z,-5.00
2019-01-21T06:32:37.503Z,-4.95
2019-01-21T06:33:37.362Z,-4.97
2019-01-21T06:34:37.230Z,-4.94
2019-01-21T06:35:37.093Z,-4.93
2019-01-21T06:36:36.949Z,-4.89
2019-01-21T06:37:36.812Z,-4.91
2019-01-21T06:38:36.677Z,-4.85
2019-01-21T06:39:36.540Z,-4.82
2019-01-21T06:40:36.402Z,-4.77
2019-01-21T06:41:36.262Z,-4.76
2019-01-21T06:42:36.127Z,-4.79
2019-01-21T06:43:35.989Z,-4.76
2019-01-21T06:44:35.854Z,-4.68
2019-01-21T06:45:35.716Z,-4.77
2019-01-21T06:46:35.579Z,-4.76
2019-01-21T06:47:35.441Z,-4.69
2019-01-21T06:48:35.304Z,-4.73
2019-01-21T06:49:35.167Z,-4.75
2019-01-21T06:50:35.030Z,-4.69
2019-01-21T06:51:34.891Z,-4.76
2019-01-21T06:52:34.754Z,-4.73
2019-01-21T06:53:34.617Z,-4.75
2019-01-21T06:54:34.479Z,-4.69
2019-01-21T06:55:34.344Z,-4.75
2019-01-21T06:56:34.206Z,-4.66
2019-01-21T06:57:34.069Z,-4.75
2019-01-21T06:58:33.934Z,-4.62
2019-01-21T06:59:33.793Z,-4.76
2019-01-21T07:00:33.658Z,-4.71
2019-01-21T07:01:33.520Z,-4.82
2019-01-21T07:02:33.387Z,-4.77
2019-01-21T07:03:33.250Z,-4.71
2019-01-21T07:04:33.114Z,-4.73
2019-01-21T07:05:32.971Z,-4.75
2019-01-21T07:06:32.833Z,-4.75
2019-01-21T07:07:32.698Z,-4.65
2019-01-21T07:08:32.591Z,-4.69
2019-01-21T07:09:32.421Z,-4.66
2019-01-21T07:10:32.286Z,-4.61
2019-01-21T07:11:32.152Z,-4.66
2019-01-21T07:12:32.012Z,-4.61
2019-01-21T07:13:31.873Z,-4.62
2019-01-21T07:14:31.738Z,-4.62
2019-01-21T07:15:31.603Z,-4.58
2019-01-21T07:16:31.465Z,-4.62
2019-01-21T07:17:31.328Z,-4.58
2019-01-21T07:18:31.200Z,-4.57
2019-01-21T07:19:31.055Z,-4.54
2019-01-21T07:20:30.948Z,-4.46
2019-01-21T07:21:30.790Z,-4.41
2019-01-21T07:22:30.666Z,-4.51
2019-01-21T07:23:30.507Z,-4.41
2019-01-21T07:24:30.370Z,-4.46
2019-01-21T07:25:30.233Z,-4.50
2019-01-21T07:26:30.094Z,-4.43
2019-01-21T07:27:29.959Z,-4.30
2019-01-21T07:28:29.822Z,-4.37
2019-01-21T07:29:29.684Z,-4.47
2019-01-21T07:30:29.550Z,-4.46
2019-01-21T07:31:29.410Z,-4.43
2019-01-21T07:32:29.274Z,-4.43
2019-01-21T07:33:29.136Z,-4.41
2019-01-21T07:34:29.002Z,-4.40
2019-01-21T07:35:28.863Z,-4.48
2019-01-21T07:36:28.727Z,-4.48
2019-01-21T07:37:28.591Z,-4.40
2019-01-21T07:38:28.453Z,-4.38
2019-01-21T07:39:28.317Z,-4.33
2019-01-21T07:40:28.180Z,-4.38
2019-01-21T07:41:28.043Z,-4.28
2019-01-21T07:42:27.907Z,-4.28
2019-01-21T07:43:27.770Z,-4.23
2019-01-21T07:44:27.634Z,-4.22
2019-01-21T07:45:27.496Z,-4.15
2019-01-21T07:46:27.360Z,-4.15
2019-01-21T07:47:27.225Z,-4.18
2019-01-21T07:48:27.086Z,-4.12
2019-01-21T07:49:26.951Z,-4.14
2019-01-21T07:50:26.817Z,-4.12
2019-01-21T07:51:26.678Z,-4.02
2019-01-21T07:52:26.542Z,-4.07
2019-01-21T07:53:26.405Z,-4.09
2019-01-21T07:54:26.270Z,-4.07
2019-01-21T07:55:26.133Z,-4.11
2019-01-21T07:56:25.998Z,-4.04
2019-01-21T07:57:25.870Z,-4.04
2019-01-21T07:58:25.726Z,-3.98
2019-01-21T07:59:25.594Z,-4.02
2019-01-21T08:00:25.452Z,-3.96
2019-01-21T08:01:25.311Z,-4.04
2019-01-21T08:02:25.176Z,-4.04
2019-01-21T08:03:25.047Z,-4.07
2019-01-21T08:04:24.906Z,-4.14
2019-01-21T08:05:24.768Z,-4.04
2019-01-21T08:06:24.632Z,-3.94
2019-01-21T08:07:24.495Z,-4.02
2019-01-21T08:08:24.360Z,-3.87
2019-01-21T08:09:24.223Z,-3.96
2019-01-21T08:10:24.088Z,-3.81
2019-01-21T08:11:23.954Z,-3.75
2019-01-21T08:12:23.815Z,-3.72
2019-01-21T08:13:23.677Z,-3.75
2019-01-21T08:14:23.542Z,-3.70
2019-01-21T08:15:26.298Z,-3.62
2019-01-21T08:16:23.272Z,-3.60
2019-01-21T08:17:23.140Z,-3.51
2019-01-21T08:18:22.998Z,-3.56
2019-01-21T08:19:24.235Z,-3.44
2019-01-21T08:20:22.726Z,-3.47
2019-01-21T08:21:22.589Z,-3.47
2019-01-21T08:22:22.453Z,-3.47
2019-01-21T08:23:22.318Z,-3.41
2019-01-21T08:24:22.195Z,-3.33
2019-01-21T08:25:22.046Z,-3.25
2019-01-21T08:26:21.911Z,-3.22
2019-01-21T08:27:21.774Z,-3.31
2019-01-21T08:28:21.638Z,-3.22
2019-01-21T08:29:21.507Z,-3.18
2019-01-21T08:30:21.366Z,-3.13
2019-01-21T08:31:21.231Z,-3.08
2019-01-21T08:32:21.097Z,-3.05
2019-01-21T08:33:20.969Z,-3.05
2019-01-21T08:34:20.827Z,-3.05
2019-01-21T08:35:20.689Z,-2.96
2019-01-21T08:36:20.554Z,-2.89
2019-01-21T08:37:20.418Z,-2.89
2019-01-21T08:38:20.282Z,-2.92
2019-01-21T08:39:20.147Z,-2.96
2019-01-21T08:40:20.013Z,-2.93
2019-01-21T08:41:19.874Z,-2.85
2019-01-21T08:42:19.742Z,-2.78
2019-01-21T08:43:19.605Z,-2.75
2019-01-21T08:44:19.471Z,-2.81
2019-01-21T08:45:19.336Z,-2.66
2019-01-21T08:46:21.458Z,-2.61
2019-01-21T08:47:19.066Z,-2.58
2019-01-21T08:48:18.930Z,-2.68
2019-01-21T08:49:18.798Z,-2.66
2019-01-21T08:50:18.658Z,-2.63
2019-01-21T08:51:18.524Z,-2.53
2019-01-21T08:52:18.391Z,-2.60
2019-01-21T08:53:18.254Z,-2.50
2019-01-21T08:54:18.120Z,-2.50
2019-01-21T08:55:17.986Z,-2.54
2019-01-21T08:56:17.850Z,-2.54
2019-01-21T08:57:17.712Z,-2.54
2019-01-21T08:58:17.577Z,-2.56
2019-01-21T08:59:17.445Z,-2.45
2019-01-21T09:00:17.312Z,-2.36
2019-01-21T09:01:17.175Z,-2.42
2019-01-21T09:02:17.039Z,-2.20
2019-01-21T09:03:16.907Z,-2.23
2019-01-21T09:04:16.771Z,-2.13
2019-01-21T09:05:16.638Z,-2.10
2019-01-21T09:06:16.497Z,-2.11
2019-01-21T09:07:16.419Z,-2.02
2019-01-21T09:08:16.231Z,-2.03
2019-01-21T09:09:16.093Z,-2.13
2019-01-21T09:10:15.956Z,-2.11
2019-01-21T09:11:15.826Z,-2.11
2019-01-21T09:12:15.708Z,-2.11
2019-01-21T09:13:15.571Z,-2.21
2019-01-21T09:14:15.438Z,-2.18
2019-01-21T09:15:15.285Z,-2.24
2019-01-21T09:16:15.150Z,-2.08
2019-01-21T09:17:15.136Z,-2.03
2019-01-21T09:18:14.897Z,-1.87
2019-01-21T09:19:14.748Z,-1.96
2019-01-21T09:20:14.610Z,-2.10
2019-01-21T09:21:14.476Z,-2.05
2019-01-21T09:22:14.342Z,-2.13
2019-01-21T09:23:14.208Z,-2.28
2019-01-21T09:24:14.075Z,-2.24
2019-01-21T09:25:13.938Z,-2.14
2019-01-21T09:26:13.801Z,-2.05
2019-01-21T09:27:13.668Z,-2.00
2019-01-21T09:28:13.534Z,-1.93
2019-01-21T09:29:13.399Z,-1.77
2019-01-21T09:30:13.264Z,-1.77
2019-01-21T09:31:13.130Z,-1.77
2019-01-21T09:32:12.994Z,-1.67
2019-01-21T09:33:12.867Z,-1.75
2019-01-21T09:34:12.723Z,-1.69
2019-01-21T09:35:12.592Z,-1.59
2019-01-21T09:36:12.457Z,-1.70
2019-01-21T09:37:12.322Z,-1.77
2019-01-21T09:38:12.187Z,-1.64
2019-01-21T09:39:12.054Z,-1.66
2019-01-21T09:40:11.919Z,-1.67
2019-01-21T09:41:11.782Z,-1.60
2019-01-21T09:42:11.651Z,-1.51
2019-01-21T09:43:11.513Z,-1.48
2019-01-21T09:44:11.379Z,-1.42
2019-01-21T09:45:11.245Z,-1.27
2019-01-21T09:46:11.109Z,-1.27
2019-01-21T09:47:10.977Z,-1.27
2019-01-21T09:48:10.848Z,-1.18
2019-01-21T09:49:10.708Z,-1.17
2019-01-21T09:50:10.573Z,-1.18
2019-01-21T09:51:10.440Z,-1.17
2019-01-21T09:52:10.305Z,-1.06
2019-01-21T09:53:10.172Z,-1.07
2019-01-21T09:54:10.037Z,-1.05
2019-01-21T09:55:09.905Z,-0.97
2019-01-21T09:56:09.768Z,-0.87
2019-01-21T09:57:09.634Z,-0.86
2019-01-21T09:58:09.500Z,-1.02
2019-01-21T09:59:09.365Z,-1.03
2019-01-21T10:00:09.232Z,-0.92
2019-01-21T10:01:09.169Z,-0.77
2019-01-21T10:02:08.970Z,-0.62
2019-01-21T10:03:08.829Z,-0.47
2019-01-21T10:04:08.699Z,-0.52
2019-01-21T10:05:08.563Z,-0.69
2019-01-21T10:06:08.430Z,-1.00
2019-01-21T10:07:08.296Z,-1.17
2019-01-21T10:08:08.161Z,-1.18
2019-01-21T10:09:08.030Z,-1.20
2019-01-21T10:10:07.892Z,-1.17
2019-01-21T10:11:07.760Z,-1.15
2019-01-21T10:12:07.627Z,-1.00
2019-01-21T10:13:07.492Z,-1.00
2019-01-21T10:14:07.359Z,-1.00
2019-01-21T10:15:07.226Z,-1.12
2019-01-21T10:16:07.090Z,-1.06
2019-01-21T10:17:06.956Z,-0.94
2019-01-21T10:18:06.823Z,-1.05
2019-01-21T10:19:06.692Z,-1.00
2019-01-21T10:20:06.554Z,-0.92
2019-01-21T10:21:06.421Z,-0.92
2019-01-21T10:22:06.288Z,-0.81
2019-01-21T10:23:06.156Z,-0.94
2019-01-21T10:24:06.020Z,-0.99
2019-01-21T10:25:05.886Z,-0.99
2019-01-21T10:26:05.751Z,-1.03
2019-01-21T10:27:05.621Z,-0.97
2019-01-21T10:28:05.487Z,-1.06
2019-01-21T10:29:05.349Z,-0.84
2019-01-21T10:30:05.219Z,-0.81
2019-01-21T10:31:05.081Z,-0.70
2019-01-21T10:32:04.951Z,-0.59
2019-01-21T10:33:04.818Z,-0.42
2019-01-21T10:34:04.680Z,-0.30
2019-01-21T10:35:04.547Z,-0.36
2019-01-21T10:36:04.415Z,-0.31
2019-01-21T10:37:04.281Z,-0.48
2019-01-21T10:38:04.148Z,-0.48
2019-01-21T10:39:04.019Z,-0.54
2019-01-21T10:40:07.863Z,-0.63
2019-01-21T10:41:03.746Z,-0.57
2019-01-21T10:42:03.614Z,-0.72
2019-01-21T10:43:03.482Z,-0.63
2019-01-21T10:44:03.349Z,-0.63
2019-01-21T10:45:03.215Z,-0.63
2019-01-21T10:46:03.082Z,-0.63
2019-01-21T10:47:02.948Z,-0.70
2019-01-21T10:48:02.816Z,-0.72
2019-01-21T10:49:02.684Z,-0.59
2019-01-21T10:50:02.546Z,-0.68
2019-01-21T10:51:02.411Z,-0.69
2019-01-21T10:52:02.279Z,-0.72
2019-01-21T10:53:02.146Z,-0.77
2019-01-21T10:54:02.010Z,-0.77
2019-01-21T10:55:01.879Z,-0.72
2019-01-21T10:56:01.750Z,-0.73
2019-01-21T10:57:01.612Z,-0.80
2019-01-21T10:58:01.478Z,-0.73
2019-01-21T10:59:01.344Z,-0.72
2019-01-21T11:00:01.212Z,-0.92
2019-01-21T11:01:01.076Z,-0.87
2019-01-21T11:02:00.947Z,-0.87
2019-01-21T11:03:00.811Z,-0.91
2019-01-21T11:04:00.676Z,-0.84
2019-01-21T11:05:00.550Z,-0.86
2019-01-21T11:06:00.410Z,-0.91
2019-01-21T11:07:00.277Z,-0.83
2019-01-21T11:08:00.141Z,-0.86
2019-01-21T11:09:00.009Z,-0.83
2019-01-21T11:09:59.875Z,-0.66
2019-01-21T11:10:59.741Z,-0.66
2019-01-21T11:11:59.607Z,-0.65
2019-01-21T11:12:59.473Z,-0.75
2019-01-21T11:13:59.340Z,-0.57
2019-01-21T11:14:59.207Z,-0.65
2019-01-21T11:15:59.071Z,-0.37
2019-01-21T11:16:58.940Z,-0.22
2019-01-21T11:17:58.806Z,-0.23
2019-01-21T11:18:58.677Z,-0.31
2019-01-21T11:20:03.969Z,-0.36
2019-01-21T11:20:58.403Z,-0.34
2019-01-21T11:21:58.273Z,-0.36
2019-01-21T11:22:58.142Z,-0.34
2019-01-21T11:23:58.042Z,-0.33
2019-01-21T11:24:57.871Z,-0.27
2019-01-21T11:25:57.739Z,-0.27
2019-01-21T11:26:57.606Z,-0.47
2019-01-21T11:27:57.472Z,-0.48
2019-01-21T11:28:57.343Z,-0.50
2019-01-21T11:29:57.210Z,-0.44
2019-01-21T11:30:57.073Z,-0.34
2019-01-21T11:31:56.941Z,-0.27
2019-01-21T11:32:56.807Z,-0.23
2019-01-21T11:33:56.673Z,-0.23
2019-01-21T11:34:56.540Z,-0.41
2019-01-21T11:35:56.423Z,-0.62
2019-01-21T11:36:56.277Z,-0.65
2019-01-21T11:37:56.141Z,-0.77
2019-01-21T11:38:56.011Z,-0.86
2019-01-21T11:39:55.878Z,-0.70
2019-01-21T11:40:55.743Z,-0.65
2019-01-21T11:41:55.609Z,-0.55
2019-01-21T11:42:55.479Z,-0.45
2019-01-21T11:43:55.345Z,-0.44
2019-01-21T11:44:55.210Z,-0.51
2019-01-21T11:45:55.079Z,-0.51
2019-01-21T11:46:54.945Z,-0.51
2019-01-21T11:47:54.811Z,-0.48
2019-01-21T11:48:54.677Z,-0.54
2019-01-21T11:49:54.543Z,-0.50
2019-01-21T11:50:54.414Z,-0.47
2019-01-21T11:51:54.280Z,-0.50
2019-01-21T11:52:54.145Z,-0.37
2019-01-21T11:53:54.013Z,-0.31
2019-01-21T11:54:53.881Z,-0.12
2019-01-21T11:55:53.748Z,-0.06
2019-01-21T11:56:53.612Z,-0.13
2019-01-21T11:57:53.481Z,-0.19
2019-01-21T11:58:53.347Z,-0.27
2019-01-21T11:59:53.215Z,-0.31
2019-01-21T12:00:53.081Z,-0.29
2019-01-21T12:01:52.952Z,-0.41
2019-01-21T12:02:52.819Z,-0.34
2019-01-21T12:03:52.687Z,-0.48
2019-01-21T12:04:52.550Z,-0.55
2019-01-21T12:05:52.417Z,-0.57
2019-01-21T12:06:52.283Z,-0.51
2019-01-21T12:07:52.152Z,-0.45
2019-01-21T12:08:52.018Z,-0.42
2019-01-21T12:09:51.884Z,-0.42
2019-01-21T12:10:51.751Z,-0.23
2019-01-21T12:11:51.618Z,-0.22
2019-01-21T12:12:51.484Z,-0.06
2019-01-21T12:13:51.357Z,-0.15
2019-01-21T12:14:51.221Z,-0.18
2019-01-21T12:15:51.086Z,-0.27
2019-01-21T12:16:50.951Z,-0.30
2019-01-21T12:17:50.821Z,-0.45
2019-01-21T12:18:50.688Z,-0.34
2019-01-21T12:19:50.557Z,-0.33
2019-01-21T12:20:50.422Z,-0.29
2019-01-21T12:21:50.289Z,-0.34
2019-01-21T12:22:50.157Z,-0.29
2019-01-21T12:23:50.025Z,-0.57
2019-01-21T12:24:49.891Z,-0.59
2019-01-21T12:25:49.755Z,-0.63
2019-01-21T12:26:49.624Z,-0.60
2019-01-21T12:27:49.489Z,-0.63
2019-01-21T12:28:49.356Z,-0.70
2019-01-21T12:29:49.224Z,-0.66
2019-01-21T12:30:49.090Z,-0.52
2019-01-21T12:31:48.957Z,-0.42
2019-01-21T12:32:48.825Z,-0.22
2019-01-21T12:33:48.695Z,-0.12
2019-01-21T12:34:48.564Z,0.10
2019-01-21T12:35:48.424Z,0.13
2019-01-21T12:36:48.293Z,0.06
2019-01-21T12:37:48.158Z,0.10
2019-01-21T12:38:48.026Z,-0.09
2019-01-21T12:39:47.895Z,-0.09
2019-01-21T12:40:47.759Z,0.09
2019-01-21T12:41:47.628Z,0.10
2019-01-21T12:42:47.497Z,0.09
2019-01-21T12:43:47.363Z,0.06
2019-01-21T12:44:47.232Z,0.07
2019-01-21T12:45:47.097Z,0.03
2019-01-21T12:46:46.968Z,0.10
2019-01-21T12:47:46.832Z,0.10
2019-01-21T12:48:46.701Z,0.16
2019-01-21T12:49:46.566Z,0.25
2019-01-21T12:50:46.433Z,0.41
2019-01-21T12:51:46.349Z,0.52